Date,TemperatureHighF,TemperatureAvgF,TemperatureLowF,DewpointHighF,DewpointAvgF,DewpointLowF,HumidityHigh,HumidityAvg,HumidityLow,PressureMaxIn,PressureMinIn,WindSpeedMaxMPH,WindSpeedAvgMPH,GustSpeedMaxMPH,PrecipitationSumIn
2013-9-1,88.5,74.6,68.7,74.7,70.3,68.5,100,88,58,29.86,29.76,0,0,12,0.01
2013-9-2,86.2,75.3,67.8,71.7,69.9,67.8,100,85,60,29.90,29.80,0,0,4,0.00
2013-9-3,86.4,73.2,65.2,71.4,67.7,64.5,100,85,56,29.98,29.82,0,0,2,2.45
2013-9-4,87.5,72.5,64.1,68.5,65.6,63.1,100,82,45,30.08,29.97,0,0,2,0.00
2013-9-5,86.0,72.1,63.4,67.5,64.7,56.7,100,81,38,30.13,30.06,0,0,1,0.00
2013-9-6,87.5,71.4,60.9,65.6,63.3,58.0,100,79,37,30.14,30.03,0,0,4,0.00
2013-9-7,86.4,72.5,62.6,68.2,65.3,62.1,100,81,48,30.09,29.96,0,0,4,0.00
2013-9-8,85.2,73.8,65.9,71.1,67.6,64.0,100,83,56,29.98,29.90,0,0,5,0.00
2013-9-9,88.3,74.6,65.7,74.0,68.3,64.5,100,83,52,30.07,29.97,0,0,3,0.00
2013-9-10,90.2,76.5,66.2,72.0,68.2,64.0,100,78,43,30.18,30.07,0,0,1,0.00
2013-9-11,88.9,76.8,68.5,71.7,69.0,66.5,99,79,49,30.19,30.04,0,0,1,0.00
2013-9-12,71.5,70.1,69.0,69.4,68.7,68.1,97,95,93,30.05,30.02,0,0,0,0.00
2013-9-13,79.8,68.6,59.7,67.2,60.4,50.9,100,78,37,29.95,29.85,0,0,5,0.00
2013-9-14,71.2,59.6,54.0,55.0,52.2,50.3,91,77,52,30.04,29.94,0,0,3,0.00
2013-9-15,83.7,67.0,56.5,65.8,60.1,56.0,100,82,44,30.15,30.05,0,0,3,0.00
2013-9-16,81.9,68.8,59.8,66.1,61.2,58.9,100,79,46,30.14,30.07,0,0,1,0.00
2013-9-17,80.0,68.8,61.9,67.4,62.1,58.1,92,80,59,30.18,30.09,0,0,0,0.00
2013-9-18,71.2,65.8,61.9,65.3,62.4,59.6,98,89,70,30.19,30.11,0,0,0,0.01
2013-9-19,83.1,70.0,61.9,68.0,64.0,61.9,100,83,51,30.16,30.02,0,0,1,0.00
2013-9-20,84.2,71.3,61.7,67.2,64.6,61.7,100,82,49,30.05,29.84,0,0,1,0.00
2013-9-21,68.7,65.5,61.1,68.7,65.2,61.1,100,99,93,29.85,29.71,0,0,1,0.96
2013-9-22,76.0,63.6,56.2,61.5,57.8,52.7,100,84,45,29.90,29.79,0,0,2,0.00
2013-9-23,79.5,63.9,52.8,63.5,58.1,52.5,100,84,49,30.00,29.90,0,0,1,0.00
2013-9-24,81.5,67.5,58.8,65.6,61.8,58.0,100,84,49,30.03,29.86,0,0,2,0.01
2013-9-25,68.8,65.9,64.1,67.7,65.4,63.9,100,99,92,29.86,29.79,0,0,0,0.30
2013-9-26,78.7,67.9,61.7,65.7,63.3,60.0,100,87,54,30.00,29.84,0,0,1,0.00
2013-9-27,80.4,65.6,57.5,61.9,58.9,52.9,100,82,40,30.13,30.01,0,0,1,0.00
2013-9-28,77.6,64.3,56.2,62.3,58.7,56.0,100,84,51,30.21,30.07,0,0,1,0.00
2013-9-29,70.7,63.0,57.7,61.4,59.5,56.9,100,89,68,30.12,29.99,0,0,0,0.00
2013-9-30,77.5,64.8,55.3,62.9,59.1,55.3,100,84,51,30.06,29.96,0,0,2,0.00